sensor_id;sensor_type;location;lat;lon;timestamp;P1;P2;P0
65680;PMS5003;61747;54.966;73.394;2022-10-12T00:01:13;3.75;3.50;2.00
65680;PMS5003;61747;54.966;73.394;2022-10-12T00:03:39;4.00;3.75;1.00
65680;PMS5003;61747;54.966;73.394;2022-10-12T00:08:36;3.00;3.00;0.00
65680;PMS5003;61747;54.966;73.394;2022-10-12T00:11:03;3.50;3.00;1.00
65680;PMS5003;61747;54.966;73.394;2022-10-12T00:13:28;3.00;3.00;1.00
65680;PMS5003;61747;54.966;73.394;2022-10-12T00:15:54;5.50;3.50;2.00
65680;PMS5003;61747;54.966;73.394;2022-10-12T00:18:20;4.00;4.00;1.00
65680;PMS5003;61747;54.966;73.394;2022-10-12T00:20:46;5.00;3.00;1.00
65680;PMS5003;61747;54.966;73.394;2022-10-12T00:23:17;3.00;2.00;0.00
65680;PMS5003;61747;54.966;73.394;2022-10-12T00:25:43;5.00;3.00;0.00
65680;PMS5003;61747;54.966;73.394;2022-10-12T00:28:08;4.67;4.00;0.00
65680;PMS5003;61747;54.966;73.394;2022-10-12T00:30:38;3.33;3.00;0.00
65680;PMS5003;61747;54.966;73.394;2022-10-12T00:33:03;3.00;3.00;1.00
65680;PMS5003;61747;54.966;73.394;2022-10-12T00:35:39;3.50;3.50;1.00
65680;PMS5003;61747;54.966;73.394;2022-10-12T00:38:04;3.00;2.67;1.00
65680;PMS5003;61747;54.966;73.394;2022-10-12T00:40:35;4.00;2.00;1.00
65680;PMS5003;61747;54.966;73.394;2022-10-12T00:43:01;3.00;3.00;1.00
65680;PMS5003;61747;54.966;73.394;2022-10-12T00:45:37;3.00;3.00;0.00
65680;PMS5003;61747;54.966;73.394;2022-10-12T00:48:03;8.25;5.75;1.50
65680;PMS5003;61747;54.966;73.394;2022-10-12T00:50:30;7.00;6.00;2.00
65680;PMS5003;61747;54.966;73.394;2022-10-12T00:55:54;7.00;7.00;3.25
65680;PMS5003;61747;54.966;73.394;2022-10-12T00:58:18;7.00;5.75;3.00
65680;PMS5003;61747;54.966;73.394;2022-10-12T01:00:49;9.00;7.00;4.00
65680;PMS5003;61747;54.966;73.394;2022-10-12T01:03:17;7.50;7.25;3.00
65680;PMS5003;61747;54.966;73.394;2022-10-12T01:05:44;7.75;7.00;3.00
65680;PMS5003;61747;54.966;73.394;2022-10-12T01:08:10;7.00;7.00;3.00
65680;PMS5003;61747;54.966;73.394;2022-10-12T01:10:35;8.33;7.00;3.00
65680;PMS5003;61747;54.966;73.394;2022-10-12T01:13:03;7.00;6.00;3.00
65680;PMS5003;61747;54.966;73.394;2022-10-12T01:18:28;9.75;7.00;4.00
65680;PMS5003;61747;54.966;73.394;2022-10-12T01:20:59;15.00;8.25;5.00
65680;PMS5003;61747;54.966;73.394;2022-10-12T01:34:01;13.00;12.25;4.00
65680;PMS5003;61747;54.966;73.394;2022-10-12T01:36:31;10.00;9.00;4.25
65680;PMS5003;61747;54.966;73.394;2022-10-12T01:41:29;13.33;9.00;5.00
65680;PMS5003;61747;54.966;73.394;2022-10-12T01:43:56;14.00;9.00;5.00
65680;PMS5003;61747;54.966;73.394;2022-10-12T01:48:56;18.50;13.50;7.00
65680;PMS5003;61747;54.966;73.394;2022-10-12T01:51:41;15.00;14.00;6.00
65680;PMS5003;61747;54.966;73.394;2022-10-12T01:59:31;13.00;7.00;2.00
65680;PMS5003;61747;54.966;73.394;2022-10-12T02:02:34;10.00;6.50;3.00
65680;PMS5003;61747;54.966;73.394;2022-10-12T02:04:51;10.75;7.50;3.00
65680;PMS5003;61747;54.966;73.394;2022-10-12T02:07:26;12.00;9.00;3.00
65680;PMS5003;61747;54.966;73.394;2022-10-12T02:09:56;12.25;9.00;3.00
65680;PMS5003;61747;54.966;73.394;2022-10-12T02:12:24;7.50;5.50;3.00
65680;PMS5003;61747;54.966;73.394;2022-10-12T02:14:53;7.00;6.00;3.25
65680;PMS5003;61747;54.966;73.394;2022-10-12T02:17:21;6.00;6.00;2.00
65680;PMS5003;61747;54.966;73.394;2022-10-12T02:19:48;6.50;5.50;3.00
65680;PMS5003;61747;54.966;73.394;2022-10-12T02:22:15;5.50;5.50;3.00
65680;PMS5003;61747;54.966;73.394;2022-10-12T02:24:43;6.00;6.00;2.00
65680;PMS5003;61747;54.966;73.394;2022-10-12T02:27:09;7.00;6.00;3.00
65680;PMS5003;61747;54.966;73.394;2022-10-12T02:29:38;4.00;4.00;2.25
65680;PMS5003;61747;54.966;73.394;2022-10-12T02:32:27;6.00;5.75;3.00
65680;PMS5003;61747;54.966;73.394;2022-10-12T02:39:54;7.25;5.00;2.50
65680;PMS5003;61747;54.966;73.394;2022-10-12T02:42:32;10.00;6.50;2.00
65680;PMS5003;61747;54.966;73.394;2022-10-12T02:44:59;8.00;7.00;2.00
65680;PMS5003;61747;54.966;73.394;2022-10-12T02:47:27;6.25;5.50;1.00
65680;PMS5003;61747;54.966;73.394;2022-10-12T02:49:55;9.00;7.00;2.50
65680;PMS5003;61747;54.966;73.394;2022-10-12T02:52:27;6.50;5.75;1.25
65680;PMS5003;61747;54.966;73.394;2022-10-12T02:54:54;6.50;5.50;1.00
65680;PMS5003;61747;54.966;73.394;2022-10-12T02:57:29;7.00;6.00;1.75
65680;PMS5003;61747;54.966;73.394;2022-10-12T02:59:55;6.50;6.00;2.00
65680;PMS5003;61747;54.966;73.394;2022-10-12T03:02:21;4.00;4.00;1.75
65680;PMS5003;61747;54.966;73.394;2022-10-12T03:04:47;5.00;4.00;2.00
65680;PMS5003;61747;54.966;73.394;2022-10-12T03:07:23;6.00;4.00;1.00
65680;PMS5003;61747;54.966;73.394;2022-10-12T03:09:48;5.00;5.00;2.50
65680;PMS5003;61747;54.966;73.394;2022-10-12T03:12:14;7.00;6.67;2.00
65680;PMS5003;61747;54.966;73.394;2022-10-12T03:14:40;8.00;7.00;2.00
65680;PMS5003;61747;54.966;73.394;2022-10-12T03:17:05;12.00;7.00;3.00
65680;PMS5003;61747;54.966;73.394;2022-10-12T03:19:31;10.00;5.00;3.00
65680;PMS5003;61747;54.966;73.394;2022-10-12T03:21:57;8.67;6.00;3.00
65680;PMS5003;61747;54.966;73.394;2022-10-12T03:24:22;7.33;6.00;2.33
65680;PMS5003;61747;54.966;73.394;2022-10-12T03:26:48;7.33;4.00;2.00
65680;PMS5003;61747;54.966;73.394;2022-10-12T03:29:14;7.00;4.67;1.33
65680;PMS5003;61747;54.966;73.394;2022-10-12T03:31:39;8.00;7.00;3.00
65680;PMS5003;61747;54.966;73.394;2022-10-12T03:34:05;4.00;4.00;2.00
65680;PMS5003;61747;54.966;73.394;2022-10-12T03:36:30;8.00;8.00;4.00
65680;PMS5003;61747;54.966;73.394;2022-10-12T03:38:57;6.00;6.00;3.00
65680;PMS5003;61747;54.966;73.394;2022-10-12T03:41:22;7.00;6.00;3.00
65680;PMS5003;61747;54.966;73.394;2022-10-12T03:43:48;7.00;6.00;3.00
65680;PMS5003;61747;54.966;73.394;2022-10-12T03:46:14;6.67;6.33;3.00
65680;PMS5003;61747;54.966;73.394;2022-10-12T03:48:39;7.00;7.00;2.67
65680;PMS5003;61747;54.966;73.394;2022-10-12T03:51:05;9.00;7.00;3.00
65680;PMS5003;61747;54.966;73.394;2022-10-12T03:53:31;8.00;6.25;3.00
65680;PMS5003;61747;54.966;73.394;2022-10-12T03:55:56;11.00;8.00;3.00
65680;PMS5003;61747;54.966;73.394;2022-10-12T03:58:32;7.00;7.00;3.00
65680;PMS5003;61747;54.966;73.394;2022-10-12T04:00:58;7.75;7.00;3.00
65680;PMS5003;61747;54.966;73.394;2022-10-12T04:03:24;7.00;6.25;3.00
65680;PMS5003;61747;54.966;73.394;2022-10-12T04:05:54;9.00;8.00;3.00
65680;PMS5003;61747;54.966;73.394;2022-10-12T04:08:20;9.50;7.25;3.00
65680;PMS5003;61747;54.966;73.394;2022-10-12T04:10:49;10.00;7.00;4.00
65680;PMS5003;61747;54.966;73.394;2022-10-12T04:13:21;8.75;7.00;3.00
65680;PMS5003;61747;54.966;73.394;2022-10-12T04:15:49;14.00;9.00;3.75
65680;PMS5003;61747;54.966;73.394;2022-10-12T04:18:18;9.25;7.00;3.00
65680;PMS5003;61747;54.966;73.394;2022-10-12T04:20:53;9.25;6.00;3.00
65680;PMS5003;61747;54.966;73.394;2022-10-12T04:23:29;10.50;7.00;4.00
65680;PMS5003;61747;54.966;73.394;2022-10-12T04:25:55;20.00;18.00;11.33
65680;PMS5003;61747;54.966;73.394;2022-10-12T04:28:20;23.33;19.67;13.00
65680;PMS5003;61747;54.966;73.394;2022-10-12T04:30:46;18.00;15.00;7.00
65680;PMS5003;61747;54.966;73.394;2022-10-12T04:33:12;16.00;11.00;3.00
65680;PMS5003;61747;54.966;73.394;2022-10-12T04:35:37;15.00;9.67;5.00
65680;PMS5003;61747;54.966;73.394;2022-10-12T04:38:04;12.00;9.75;3.75
65680;PMS5003;61747;54.966;73.394;2022-10-12T04:40:30;15.67;12.67;4.00
65680;PMS5003;61747;54.966;73.394;2022-10-12T04:43:01;11.50;9.75;3.00
65680;PMS5003;61747;54.966;73.394;2022-10-12T04:45:31;8.50;5.50;3.00
65680;PMS5003;61747;54.966;73.394;2022-10-12T04:47:58;14.00;7.50;3.00
65680;PMS5003;61747;54.966;73.394;2022-10-12T04:50:28;13.00;8.00;3.75
65680;PMS5003;61747;54.966;73.394;2022-10-12T04:52:55;14.25;7.00;4.00
65680;PMS5003;61747;54.966;73.394;2022-10-12T04:55:25;12.00;7.50;3.00
65680;PMS5003;61747;54.966;73.394;2022-10-12T04:57:51;12.00;8.00;4.00
65680;PMS5003;61747;54.966;73.394;2022-10-12T05:00:28;10.00;7.25;3.50
65680;PMS5003;61747;54.966;73.394;2022-10-12T05:03:00;11.75;8.00;3.00
65680;PMS5003;61747;54.966;73.394;2022-10-12T05:05:26;12.00;9.00;3.50
65680;PMS5003;61747;54.966;73.394;2022-10-12T05:07:58;12.25;7.25;4.00
65680;PMS5003;61747;54.966;73.394;2022-10-12T05:10:23;10.00;7.67;3.00
65680;PMS5003;61747;54.966;73.394;2022-10-12T05:12:49;11.00;9.75;3.00
65680;PMS5003;61747;54.966;73.394;2022-10-12T05:15:19;18.75;13.00;6.50
65680;PMS5003;61747;54.966;73.394;2022-10-12T05:17:45;15.00;11.75;4.25
65680;PMS5003;61747;54.966;73.394;2022-10-12T05:20:22;15.75;14.00;4.75
65680;PMS5003;61747;54.966;73.394;2022-10-12T05:22:52;16.50;15.50;6.25
65680;PMS5003;61747;54.966;73.394;2022-10-12T05:25:18;15.00;12.00;4.00
65680;PMS5003;61747;54.966;73.394;2022-10-12T05:27:44;15.67;14.33;4.33
65680;PMS5003;61747;54.966;73.394;2022-10-12T05:30:12;15.00;14.00;5.00
65680;PMS5003;61747;54.966;73.394;2022-10-12T05:32:48;14.75;12.00;4.00
65680;PMS5003;61747;54.966;73.394;2022-10-12T05:35:19;15.00;12.00;4.00
65680;PMS5003;61747;54.966;73.394;2022-10-12T05:37:45;17.75;13.00;6.50
65680;PMS5003;61747;54.966;73.394;2022-10-12T05:40:10;15.00;11.50;5.00
65680;PMS5003;61747;54.966;73.394;2022-10-12T05:42:36;13.00;12.00;4.75
65680;PMS5003;61747;54.966;73.394;2022-10-12T05:45:07;14.00;11.00;4.00
65680;PMS5003;61747;54.966;73.394;2022-10-12T05:47:33;15.00;10.00;5.00
65680;PMS5003;61747;54.966;73.394;2022-10-12T05:49:58;15.33;12.00;6.00
65680;PMS5003;61747;54.966;73.394;2022-10-12T05:52:30;18.00;15.00;6.00
65680;PMS5003;61747;54.966;73.394;2022-10-12T05:54:55;15.00;12.00;5.33
65680;PMS5003;61747;54.966;73.394;2022-10-12T05:57:21;16.00;8.00;3.33
65680;PMS5003;61747;54.966;73.394;2022-10-12T05:59:47;19.67;12.00;5.00
65680;PMS5003;61747;54.966;73.394;2022-10-12T06:02:17;23.75;18.25;10.75
65680;PMS5003;61747;54.966;73.394;2022-10-12T06:04:42;24.25;16.50;8.00
65680;PMS5003;61747;54.966;73.394;2022-10-12T06:07:08;19.33;13.00;5.00
65680;PMS5003;61747;54.966;73.394;2022-10-12T06:09:34;13.50;12.00;5.00
65680;PMS5003;61747;54.966;73.394;2022-10-12T06:12:03;15.25;12.75;5.25
65680;PMS5003;61747;54.966;73.394;2022-10-12T06:14:29;16.00;14.00;6.00
65680;PMS5003;61747;54.966;73.394;2022-10-12T06:16:55;17.00;15.00;5.33
65680;PMS5003;61747;54.966;73.394;2022-10-12T06:19:21;19.00;15.00;6.75
65680;PMS5003;61747;54.966;73.394;2022-10-12T06:21:46;16.67;14.33;5.67
65680;PMS5003;61747;54.966;73.394;2022-10-12T06:24:23;16.00;13.00;5.00
65680;PMS5003;61747;54.966;73.394;2022-10-12T06:26:58;18.00;16.00;8.00
65680;PMS5003;61747;54.966;73.394;2022-10-12T06:29:24;18.33;16.33;8.00
65680;PMS5003;61747;54.966;73.394;2022-10-12T06:31:55;18.00;14.00;7.00
65680;PMS5003;61747;54.966;73.394;2022-10-12T06:34:21;18.25;15.00;6.00
65680;PMS5003;61747;54.966;73.394;2022-10-12T06:36:47;23.00;17.33;7.67
65680;PMS5003;61747;54.966;73.394;2022-10-12T06:39:21;28.50;25.50;13.00
65680;PMS5003;61747;54.966;73.394;2022-10-12T06:41:50;29.50;23.75;13.00
65680;PMS5003;61747;54.966;73.394;2022-10-12T06:44:18;21.00;18.25;9.00
65680;PMS5003;61747;54.966;73.394;2022-10-12T06:46:47;21.50;18.00;8.25
65680;PMS5003;61747;54.966;73.394;2022-10-12T06:49:16;19.25;17.00;7.00
65680;PMS5003;61747;54.966;73.394;2022-10-12T06:51:41;22.00;18.25;9.00
65680;PMS5003;61747;54.966;73.394;2022-10-12T06:54:07;23.50;19.00;9.00
65680;PMS5003;61747;54.966;73.394;2022-10-12T06:56:43;26.25;19.75;9.75
65680;PMS5003;61747;54.966;73.394;2022-10-12T06:59:10;27.00;21.00;13.00
65680;PMS5003;61747;54.966;73.394;2022-10-12T07:01:36;22.50;19.00;12.00
65680;PMS5003;61747;54.966;73.394;2022-10-12T07:04:02;26.00;21.33;12.00
65680;PMS5003;61747;54.966;73.394;2022-10-12T07:06:28;24.25;22.00;12.00
65680;PMS5003;61747;54.966;73.394;2022-10-12T07:08:53;22.00;19.00;10.00
65680;PMS5003;61747;54.966;73.394;2022-10-12T07:11:20;41.25;34.00;23.75
65680;PMS5003;61747;54.966;73.394;2022-10-12T07:13:45;38.50;31.25;22.00
65680;PMS5003;61747;54.966;73.394;2022-10-12T07:16:11;34.67;26.33;17.33
65680;PMS5003;61747;54.966;73.394;2022-10-12T07:18:47;36.00;27.00;18.00
65680;PMS5003;61747;54.966;73.394;2022-10-12T07:21:13;33.25;26.00;18.00
65680;PMS5003;61747;54.966;73.394;2022-10-12T07:23:39;31.33;26.00;16.00
65680;PMS5003;61747;54.966;73.394;2022-10-12T07:26:05;33.00;27.00;17.25
65680;PMS5003;61747;54.966;73.394;2022-10-12T07:28:32;30.75;24.00;14.00
65680;PMS5003;61747;54.966;73.394;2022-10-12T07:31:02;38.00;29.75;19.00
65680;PMS5003;61747;54.966;73.394;2022-10-12T07:33:34;29.00;24.00;16.00
65680;PMS5003;61747;54.966;73.394;2022-10-12T07:36:01;24.50;21.50;14.00
65680;PMS5003;61747;54.966;73.394;2022-10-12T07:38:27;25.00;21.25;13.25
65680;PMS5003;61747;54.966;73.394;2022-10-12T07:40:53;21.75;18.75;12.00
65680;PMS5003;61747;54.966;73.394;2022-10-12T07:43:24;18.00;16.50;9.50
65680;PMS5003;61747;54.966;73.394;2022-10-12T07:45:50;20.00;16.00;8.33
65680;PMS5003;61747;54.966;73.394;2022-10-12T07:48:15;19.00;16.67;9.00
65680;PMS5003;61747;54.966;73.394;2022-10-12T07:50:41;22.33;18.67;10.67
65680;PMS5003;61747;54.966;73.394;2022-10-12T07:53:07;21.33;18.00;12.00
65680;PMS5003;61747;54.966;73.394;2022-10-12T07:55:32;26.00;22.67;16.00
65680;PMS5003;61747;54.966;73.394;2022-10-12T07:57:59;22.50;22.00;14.00
65680;PMS5003;61747;54.966;73.394;2022-10-12T08:00:25;20.00;17.00;14.00
65680;PMS5003;61747;54.966;73.394;2022-10-12T08:02:51;22.25;17.50;12.75
65680;PMS5003;61747;54.966;73.394;2022-10-12T08:05:17;26.00;21.50;11.75
65680;PMS5003;61747;54.966;73.394;2022-10-12T08:07:49;25.25;22.00;13.00
65680;PMS5003;61747;54.966;73.394;2022-10-12T08:10:15;26.00;19.25;13.00
65680;PMS5003;61747;54.966;73.394;2022-10-12T08:12:43;22.00;19.25;13.00
65680;PMS5003;61747;54.966;73.394;2022-10-12T08:15:09;23.00;20.00;13.00
65680;PMS5003;61747;54.966;73.394;2022-10-12T08:17:35;29.00;23.75;15.00
65680;PMS5003;61747;54.966;73.394;2022-10-12T08:20:11;29.00;25.00;17.25
65680;PMS5003;61747;54.966;73.394;2022-10-12T08:22:37;27.33;23.33;16.00
65680;PMS5003;61747;54.966;73.394;2022-10-12T08:25:03;31.50;26.00;18.00
65680;PMS5003;61747;54.966;73.394;2022-10-12T08:27:33;26.00;24.00;16.00
65680;PMS5003;61747;54.966;73.394;2022-10-12T08:30:00;26.00;23.00;16.00
65680;PMS5003;61747;54.966;73.394;2022-10-12T08:32:26;31.50;26.00;18.50
65680;PMS5003;61747;54.966;73.394;2022-10-12T08:34:52;39.50;32.25;22.50
65680;PMS5003;61747;54.966;73.394;2022-10-12T08:37:17;36.00;28.67;18.67
65680;PMS5003;61747;54.966;73.394;2022-10-12T08:39:48;30.00;26.00;17.50
65680;PMS5003;61747;54.966;73.394;2022-10-12T08:45:20;25.00;21.00;15.25
65680;PMS5003;61747;54.966;73.394;2022-10-12T08:47:52;27.50;25.00;16.00
65680;PMS5003;61747;54.966;73.394;2022-10-12T08:50:30;31.50;26.50;17.50
65680;PMS5003;61747;54.966;73.394;2022-10-12T08:52:59;27.00;24.00;17.00
65680;PMS5003;61747;54.966;73.394;2022-10-12T08:55:38;31.00;26.75;18.00
65680;PMS5003;61747;54.966;73.394;2022-10-12T08:58:09;32.50;27.50;18.75
65680;PMS5003;61747;54.966;73.394;2022-10-12T09:00:38;28.50;25.00;17.25
65680;PMS5003;61747;54.966;73.394;2022-10-12T09:03:12;23.50;21.00;14.00
65680;PMS5003;61747;54.966;73.394;2022-10-12T09:05:43;30.75;26.00;18.00
65680;PMS5003;61747;54.966;73.394;2022-10-12T09:08:14;37.25;31.75;21.00
65680;PMS5003;61747;54.966;73.394;2022-10-12T09:10:46;33.00;28.25;18.50
65680;PMS5003;61747;54.966;73.394;2022-10-12T09:13:31;48.50;40.00;27.50
65680;PMS5003;61747;54.966;73.394;2022-10-12T09:16:03;37.50;31.50;21.50
65680;PMS5003;61747;54.966;73.394;2022-10-12T09:18:41;27.50;24.00;16.00
65680;PMS5003;61747;54.966;73.394;2022-10-12T09:21:12;23.25;20.75;13.50
65680;PMS5003;61747;54.966;73.394;2022-10-12T09:23:41;20.50;18.00;10.25
65680;PMS5003;61747;54.966;73.394;2022-10-12T09:34:16;29.00;24.50;15.75
65680;PMS5003;61747;54.966;73.394;2022-10-12T09:36:52;29.00;23.50;16.00
65680;PMS5003;61747;54.966;73.394;2022-10-12T09:39:21;30.00;24.50;17.00
65680;PMS5003;61747;54.966;73.394;2022-10-12T09:41:50;37.00;28.00;20.50
65680;PMS5003;61747;54.966;73.394;2022-10-12T09:44:23;33.67;28.00;19.33
65680;PMS5003;61747;54.966;73.394;2022-10-12T09:46:55;42.50;33.50;23.50
65680;PMS5003;61747;54.966;73.394;2022-10-12T09:49:21;37.75;31.75;22.00
65680;PMS5003;61747;54.966;73.394;2022-10-12T09:51:46;30.33;27.00;18.33
65680;PMS5003;61747;54.966;73.394;2022-10-12T09:54:17;28.00;24.50;17.00
65680;PMS5003;61747;54.966;73.394;2022-10-12T09:56:47;26.50;24.00;16.00
65680;PMS5003;61747;54.966;73.394;2022-10-12T10:01:56;24.50;20.25;14.00
65680;PMS5003;61747;54.966;73.394;2022-10-12T10:04:32;29.50;24.50;16.50
65680;PMS5003;61747;54.966;73.394;2022-10-12T10:07:19;28.75;24.00;16.00
65680;PMS5003;61747;54.966;73.394;2022-10-12T10:09:45;23.25;19.00;14.00
65680;PMS5003;61747;54.966;73.394;2022-10-12T10:14:47;30.00;25.00;18.00
65680;PMS5003;61747;54.966;73.394;2022-10-12T10:17:14;27.00;22.25;15.00
65680;PMS5003;61747;54.966;73.394;2022-10-12T10:19:53;25.50;22.25;14.25
65680;PMS5003;61747;54.966;73.394;2022-10-12T10:22:20;25.00;21.00;14.00
65680;PMS5003;61747;54.966;73.394;2022-10-12T10:24:52;23.50;21.00;14.00
65680;PMS5003;61747;54.966;73.394;2022-10-12T10:27:31;24.50;23.00;14.50
65680;PMS5003;61747;54.966;73.394;2022-10-12T10:30:08;24.75;23.50;16.00
65680;PMS5003;61747;54.966;73.394;2022-10-12T10:32:34;22.50;22.00;16.00
65680;PMS5003;61747;54.966;73.394;2022-10-12T10:35:01;25.00;21.50;15.00
65680;PMS5003;61747;54.966;73.394;2022-10-12T10:37:27;29.00;24.25;15.00
65680;PMS5003;61747;54.966;73.394;2022-10-12T10:40:04;28.50;23.00;15.00
65680;PMS5003;61747;54.966;73.394;2022-10-12T10:42:31;26.50;20.00;15.00
65680;PMS5003;61747;54.966;73.394;2022-10-12T10:45:02;24.00;19.50;14.00
65680;PMS5003;61747;54.966;73.394;2022-10-12T10:47:30;23.00;20.00;14.00
65680;PMS5003;61747;54.966;73.394;2022-10-12T10:49:57;22.25;21.00;15.00
65680;PMS5003;61747;54.966;73.394;2022-10-12T10:57:40;30.00;23.25;14.00
65680;PMS5003;61747;54.966;73.394;2022-10-12T11:00:20;25.00;20.00;14.00
65680;PMS5003;61747;54.966;73.394;2022-10-12T11:05:23;22.25;21.00;12.00
65680;PMS5003;61747;54.966;73.394;2022-10-12T11:07:55;23.75;21.00;13.00
65680;PMS5003;61747;54.966;73.394;2022-10-12T11:12:52;31.25;25.75;15.25
65680;PMS5003;61747;54.966;73.394;2022-10-12T11:15:23;35.00;27.00;16.00
65680;PMS5003;61747;54.966;73.394;2022-10-12T11:18:06;25.50;22.25;14.00
65680;PMS5003;61747;54.966;73.394;2022-10-12T11:20:42;24.00;20.00;15.00
65680;PMS5003;61747;54.966;73.394;2022-10-12T11:26:11;26.75;22.00;14.00
65680;PMS5003;61747;54.966;73.394;2022-10-12T11:28:38;31.50;25.00;14.75
65680;PMS5003;61747;54.966;73.394;2022-10-12T11:31:05;30.50;24.00;16.00
65680;PMS5003;61747;54.966;73.394;2022-10-12T11:33:36;24.50;21.75;13.50
65680;PMS5003;61747;54.966;73.394;2022-10-12T11:36:07;28.00;24.00;16.00
65680;PMS5003;61747;54.966;73.394;2022-10-12T11:38:37;22.50;21.00;14.00
65680;PMS5003;61747;54.966;73.394;2022-10-12T11:43:31;25.75;22.50;15.00
65680;PMS5003;61747;54.966;73.394;2022-10-12T11:46:01;27.00;23.00;14.00
65680;PMS5003;61747;54.966;73.394;2022-10-12T11:48:38;28.00;23.00;15.00
65680;PMS5003;61747;54.966;73.394;2022-10-12T11:51:06;27.50;22.00;15.00
65680;PMS5003;61747;54.966;73.394;2022-10-12T11:56:09;18.25;16.00;9.25
65680;PMS5003;61747;54.966;73.394;2022-10-12T11:58:40;12.25;11.00;5.00
65680;PMS5003;61747;54.966;73.394;2022-10-12T12:09:04;6.25;4.00;3.00
65680;PMS5003;61747;54.966;73.394;2022-10-12T12:11:31;4.25;4.00;3.00
65680;PMS5003;61747;54.966;73.394;2022-10-12T12:16:45;6.00;6.00;4.00
65680;PMS5003;61747;54.966;73.394;2022-10-12T12:19:38;6.00;5.25;3.00
65680;PMS5003;61747;54.966;73.394;2022-10-12T12:27:29;8.00;5.00;3.50
65680;PMS5003;61747;54.966;73.394;2022-10-12T12:29:57;7.00;4.75;2.00
65680;PMS5003;61747;54.966;73.394;2022-10-12T12:32:24;6.00;4.75;2.00
65680;PMS5003;61747;54.966;73.394;2022-10-12T12:34:53;4.00;4.00;2.25
65680;PMS5003;61747;54.966;73.394;2022-10-12T12:37:19;4.75;4.75;3.00
65680;PMS5003;61747;54.966;73.394;2022-10-12T12:39:54;6.75;5.75;3.00
65680;PMS5003;61747;54.966;73.394;2022-10-12T12:42:22;6.25;5.00;1.00
65680;PMS5003;61747;54.966;73.394;2022-10-12T12:44:48;8.00;6.00;3.00
65680;PMS5003;61747;54.966;73.394;2022-10-12T12:47:16;8.00;6.00;3.00
65680;PMS5003;61747;54.966;73.394;2022-10-12T12:49:53;5.00;4.50;3.00
65680;PMS5003;61747;54.966;73.394;2022-10-12T12:57:33;12.00;6.00;4.00
65680;PMS5003;61747;54.966;73.394;2022-10-12T13:00:21;10.00;8.00;4.00
65680;PMS5003;61747;54.966;73.394;2022-10-12T13:21:16;15.00;13.00;4.00
65680;PMS5003;61747;54.966;73.394;2022-10-12T13:23:55;15.00;14.00;5.00
65680;PMS5003;61747;54.966;73.394;2022-10-12T13:26:24;15.75;15.00;5.00
65680;PMS5003;61747;54.966;73.394;2022-10-12T13:29:01;17.75;16.00;7.00
65680;PMS5003;61747;54.966;73.394;2022-10-12T13:31:42;19.00;16.00;9.00
65680;PMS5003;61747;54.966;73.394;2022-10-12T13:34:16;16.25;15.00;6.50
65680;PMS5003;61747;54.966;73.394;2022-10-12T13:37:08;19.00;15.00;7.00
65680;PMS5003;61747;54.966;73.394;2022-10-12T13:39:36;17.25;15.50;7.00
65680;PMS5003;61747;54.966;73.394;2022-10-12T13:42:08;17.00;15.00;7.00
65680;PMS5003;61747;54.966;73.394;2022-10-12T13:44:36;17.50;15.00;6.00
65680;PMS5003;61747;54.966;73.394;2022-10-12T13:49:46;20.00;18.00;9.25
65680;PMS5003;61747;54.966;73.394;2022-10-12T13:52:27;19.25;17.00;8.00
65680;PMS5003;61747;54.966;73.394;2022-10-12T13:54:53;16.00;15.00;7.00
65680;PMS5003;61747;54.966;73.394;2022-10-12T13:57:22;19.00;16.25;6.00
65680;PMS5003;61747;54.966;73.394;2022-10-12T13:59:59;17.75;16.00;6.75
65680;PMS5003;61747;54.966;73.394;2022-10-12T14:02:36;18.00;15.50;7.00
65680;PMS5003;61747;54.966;73.394;2022-10-12T14:05:02;21.50;18.00;8.25
65680;PMS5003;61747;54.966;73.394;2022-10-12T14:09:59;18.00;15.75;8.00
65680;PMS5003;61747;54.966;73.394;2022-10-12T14:12:26;15.00;13.50;5.50
65680;PMS5003;61747;54.966;73.394;2022-10-12T14:14:54;16.25;13.00;7.00
65680;PMS5003;61747;54.966;73.394;2022-10-12T14:17:20;19.00;16.50;7.25
65680;PMS5003;61747;54.966;73.394;2022-10-12T14:19:50;20.00;16.25;8.00
65680;PMS5003;61747;54.966;73.394;2022-10-12T14:22:18;18.50;15.75;8.00
65680;PMS5003;61747;54.966;73.394;2022-10-12T14:24:48;18.25;17.00;9.00
65680;PMS5003;61747;54.966;73.394;2022-10-12T14:27:22;19.00;17.00;9.75
65680;PMS5003;61747;54.966;73.394;2022-10-12T14:29:48;20.75;16.00;10.00
65680;PMS5003;61747;54.966;73.394;2022-10-12T14:34:44;24.67;21.00;12.00
65680;PMS5003;61747;54.966;73.394;2022-10-12T14:39:42;27.00;23.00;14.50
65680;PMS5003;61747;54.966;73.394;2022-10-12T14:42:21;25.75;23.00;15.00
65680;PMS5003;61747;54.966;73.394;2022-10-12T14:44:48;27.00;23.00;15.00
65680;PMS5003;61747;54.966;73.394;2022-10-12T14:49:49;24.00;22.00;13.00
65680;PMS5003;61747;54.966;73.394;2022-10-12T14:54:54;26.00;23.00;14.75
65680;PMS5003;61747;54.966;73.394;2022-10-12T14:57:20;31.00;24.00;15.75
65680;PMS5003;61747;54.966;73.394;2022-10-12T14:59:51;32.00;24.00;15.00
65680;PMS5003;61747;54.966;73.394;2022-10-12T15:04:55;26.50;23.00;15.00
65680;PMS5003;61747;54.966;73.394;2022-10-12T15:07:29;24.50;22.00;15.00
65680;PMS5003;61747;54.966;73.394;2022-10-12T15:09:55;30.50;24.50;15.00
65680;PMS5003;61747;54.966;73.394;2022-10-12T15:12:21;28.00;23.00;14.00
65680;PMS5003;61747;54.966;73.394;2022-10-12T15:14:48;28.25;23.50;16.00
65680;PMS5003;61747;54.966;73.394;2022-10-12T15:17:14;25.00;22.00;15.00
65680;PMS5003;61747;54.966;73.394;2022-10-12T15:19:45;22.50;21.00;14.00
65680;PMS5003;61747;54.966;73.394;2022-10-12T15:22:24;23.50;19.25;12.50
65680;PMS5003;61747;54.966;73.394;2022-10-12T15:24:51;24.00;20.25;13.00
65680;PMS5003;61747;54.966;73.394;2022-10-12T15:27:17;21.00;20.75;12.25
65680;PMS5003;61747;54.966;73.394;2022-10-12T15:29:48;20.00;19.00;11.00
65680;PMS5003;61747;54.966;73.394;2022-10-12T15:32:22;22.00;18.50;12.00
65680;PMS5003;61747;54.966;73.394;2022-10-12T15:34:48;22.00;18.00;12.00
65680;PMS5003;61747;54.966;73.394;2022-10-12T15:37:20;20.75;18.25;12.00
65680;PMS5003;61747;54.966;73.394;2022-10-12T15:39:46;19.67;17.33;10.00
65680;PMS5003;61747;54.966;73.394;2022-10-12T15:42:11;21.00;19.00;11.00
65680;PMS5003;61747;54.966;73.394;2022-10-12T15:44:39;23.00;18.25;10.25
65680;PMS5003;61747;54.966;73.394;2022-10-12T15:47:15;22.00;17.00;9.00
65680;PMS5003;61747;54.966;73.394;2022-10-12T15:49:42;23.00;18.00;10.00
65680;PMS5003;61747;54.966;73.394;2022-10-12T15:52:08;21.75;17.00;10.00
65680;PMS5003;61747;54.966;73.394;2022-10-12T15:54:40;23.00;19.50;10.00
65680;PMS5003;61747;54.966;73.394;2022-10-12T15:57:05;23.67;18.00;11.00
65680;PMS5003;61747;54.966;73.394;2022-10-12T15:59:31;19.00;17.00;11.00
65680;PMS5003;61747;54.966;73.394;2022-10-12T16:02:00;16.50;15.00;10.00
65680;PMS5003;61747;54.966;73.394;2022-10-12T16:04:26;16.33;15.67;9.00
65680;PMS5003;61747;54.966;73.394;2022-10-12T16:06:51;17.33;15.00;7.00